^^
Saratoga-Weather Station Historical Data
Daily Summary for February 1, 2020 Units:  Both    English   Metric
Daily Weekly Monthly Yearly Custom
  High: Low: Average:
Temperature: 55 °F /  12.8 °C 29.5 °F /  -1.4 °C 41.4 °F /  5.2 °C
Dew Point: 28.4 °F /  -2 °C 23 °F /  -5 °C 25.2 °F /  -3.8 °C
Humidity: 78% 31% 55%
Wind Speed: 9mph /  14.5km/h - 1.2mph /  1.9km/h
Wind Gust: 11mph /  17.7km/h - -
Wind- - SSE
Pressure: 30.3 in /  1024.7 hPa 30 in /  1015.6 hPa -
Precipitation: 0 in /  0.0 mm    
Historical Graphs
 
 
Tabular Data for February 1, 2020
Time Temperature Dew Point Pressure Wind Wind Speed Wind Gust Humidity Rainfall Rate (Hourly) solar
00:01 35.1 °F /  1.7 °C 24.8 °F /  -4 °C 30.3in /  1024.4hPa Calm     66% 0in /  0.0mm 0 W/m2
00:06 34.9 °F /  1.6 °C 25 °F /  -3.9 °C 30.3in /  1024.7hPa Calm     67% 0in /  0.0mm 0 W/m2
00:11 34.7 °F /  1.5 °C 25.2 °F /  -3.8 °C 30.3in /  1024.4hPa Calm     68% 0in /  0.0mm 0 W/m2
00:16 34.5 °F /  1.4 °C 25 °F /  -3.9 °C 30.3in /  1024.4hPa Calm     68% 0in /  0.0mm 0 W/m2
00:21 34.5 °F /  1.4 °C 25 °F /  -3.9 °C 30.3in /  1024.4hPa Calm     68% 0in /  0.0mm 0 W/m2
00:26 34.3 °F /  1.3 °C 25.2 °F /  -3.8 °C 30.3in /  1024.4hPa Calm     69% 0in /  0.0mm 0 W/m2
00:31 34.3 °F /  1.3 °C 25.2 °F /  -3.8 °C 30.3in /  1024.4hPa ESE 0.9mph /  1.4km/h 1mph /  1.6km/h 69% 0in /  0.0mm 0 W/m2
00:36 34.2 °F /  1.2 °C 25 °F /  -3.9 °C 30.3in /  1024.4hPa Calm     69% 0in /  0.0mm 0 W/m2
00:41 34 °F /  1.1 °C 24.8 °F /  -4 °C 30.3in /  1024.4hPa Calm     69% 0in /  0.0mm 0 W/m2
00:46 34.2 °F /  1.2 °C 25 °F /  -3.9 °C 30.2in /  1024.0hPa Calm   2mph /  3.2km/h 69% 0in /  0.0mm 0 W/m2
00:51 34.2 °F /  1.2 °C 25.3 °F /  -3.7 °C 30.2in /  1024.0hPa ESE 0.9mph /  1.4km/h 2mph /  3.2km/h 70% 0in /  0.0mm 0 W/m2
00:56 34.2 °F /  1.2 °C 25.3 °F /  -3.7 °C 30.2in /  1024.0hPa Calm   1mph /  1.6km/h 70% 0in /  0.0mm 0 W/m2
01:01 34 °F /  1.1 °C 25.2 °F /  -3.8 °C 30.2in /  1024.0hPa ESE 0.9mph /  1.4km/h 1mph /  1.6km/h 70% 0in /  0.0mm 0 W/m2
01:06 34 °F /  1.1 °C 24.8 °F /  -4 °C 30.2in /  1024.0hPa Calm   1mph /  1.6km/h 69% 0in /  0.0mm 0 W/m2
01:11 33.8 °F /  1 °C 25 °F /  -3.9 °C 30.2in /  1024.0hPa Calm   1mph /  1.6km/h 70% 0in /  0.0mm 0 W/m2
01:16 33.6 °F /  0.9 °C 24.8 °F /  -4 °C 30.2in /  1024.0hPa Calm   1mph /  1.6km/h 70% 0in /  0.0mm 0 W/m2
01:21 33.4 °F /  0.8 °C 24.8 °F /  -4 °C 30.2in /  1024.0hPa ESE 0.9mph /  1.4km/h 1mph /  1.6km/h 70% 0in /  0.0mm 0 W/m2
01:26 33.3 °F /  0.7 °C 24.6 °F /  -4.1 °C 30.2in /  1024.0hPa ESE 0.9mph /  1.4km/h 1mph /  1.6km/h 70% 0in /  0.0mm 0 W/m2
01:31 33.3 °F /  0.7 °C 24.6 °F /  -4.1 °C 30.2in /  1023.7hPa Calm   1mph /  1.6km/h 70% 0in /  0.0mm 0 W/m2
01:36 33.1 °F /  0.6 °C 24.4 °F /  -4.2 °C 30.2in /  1023.7hPa Calm   1mph /  1.6km/h 70% 0in /  0.0mm 0 W/m2
01:42 33.1 °F /  0.6 °C 24.4 °F /  -4.2 °C 30.2in /  1023.7hPa Calm   1mph /  1.6km/h 70% 0in /  0.0mm 0 W/m2
01:47 32.7 °F /  0.4 °C 24.4 °F /  -4.2 °C 30.2in /  1023.7hPa Calm     71% 0in /  0.0mm 0 W/m2
01:52 32.7 °F /  0.4 °C 24.4 °F /  -4.2 °C 30.2in /  1023.7hPa Calm   1mph /  1.6km/h 71% 0in /  0.0mm 0 W/m2
01:57 32.7 °F /  0.4 °C 24.4 °F /  -4.2 °C 30.2in /  1023.7hPa Calm     71% 0in /  0.0mm 0 W/m2
02:02 32.7 °F /  0.4 °C 24.4 °F /  -4.2 °C 30.2in /  1023.7hPa Calm   1mph /  1.6km/h 71% 0in /  0.0mm 0 W/m2
02:07 32.7 °F /  0.4 °C 24.4 °F /  -4.2 °C 30.2in /  1023.7hPa Calm     71% 0in /  0.0mm 0 W/m2
02:12 32.5 °F /  0.3 °C 24.3 °F /  -4.3 °C 30.2in /  1023.7hPa Calm     71% 0in /  0.0mm 0 W/m2
02:17 32.4 °F /  0.2 °C 24.3 °F /  -4.3 °C 30.2in /  1023.7hPa Calm     72% 0in /  0.0mm 0 W/m2
02:22 32.2 °F /  0.1 °C 24.3 °F /  -4.3 °C 30.2in /  1023.7hPa ESE 0.9mph /  1.4km/h 1mph /  1.6km/h 72% 0in /  0.0mm 0 W/m2
02:27 32.2 °F /  0.1 °C 24.3 °F /  -4.3 °C 30.2in /  1023.7hPa Calm   1mph /  1.6km/h 72% 0in /  0.0mm 0 W/m2
02:32 32.2 °F /  0.1 °C 24.3 °F /  -4.3 °C 30.2in /  1023.7hPa Calm   1mph /  1.6km/h 72% 0in /  0.0mm 0 W/m2
02:37 32 °F /  0 °C 24.3 °F /  -4.3 °C 30.2in /  1023.7hPa Calm   1mph /  1.6km/h 73% 0in /  0.0mm 0 W/m2
02:43 31.8 °F /  -0.1 °C 24.1 °F /  -4.4 °C 30.2in /  1023.7hPa Calm     73% 0in /  0.0mm 0 W/m2
02:48 31.6 °F /  -0.2 °C 23.9 °F /  -4.5 °C 30.2in /  1023.7hPa Calm     73% 0in /  0.0mm 0 W/m2
02:53 31.6 °F /  -0.2 °C 24.3 °F /  -4.3 °C 30.2in /  1023.7hPa Calm     74% 0in /  0.0mm 0 W/m2
02:58 31.6 °F /  -0.2 °C 24.3 °F /  -4.3 °C 30.2in /  1023.7hPa Calm     74% 0in /  0.0mm 0 W/m2
03:03 31.5 °F /  -0.3 °C 24.1 °F /  -4.4 °C 30.2in /  1023.7hPa Calm     74% 0in /  0.0mm 0 W/m2
03:08 31.5 °F /  -0.3 °C 24.1 °F /  -4.4 °C 30.2in /  1023.7hPa Calm     74% 0in /  0.0mm 0 W/m2
03:13 31.5 °F /  -0.3 °C 24.1 °F /  -4.4 °C 30.2in /  1023.7hPa Calm     74% 0in /  0.0mm 0 W/m2
03:18 31.6 °F /  -0.2 °C 23.9 °F /  -4.5 °C 30.2in /  1023.7hPa Calm   1mph /  1.6km/h 73% 0in /  0.0mm 0 W/m2
03:23 31.8 °F /  -0.1 °C 24.1 °F /  -4.4 °C 30.2in /  1023.7hPa Calm   1mph /  1.6km/h 73% 0in /  0.0mm 0 W/m2
03:28 31.8 °F /  -0.1 °C 24.1 °F /  -4.4 °C 30.2in /  1023.4hPa Calm     73% 0in /  0.0mm 0 W/m2
03:33 31.8 °F /  -0.1 °C 23.9 °F /  -4.5 °C 30.2in /  1023.7hPa Calm   1mph /  1.6km/h 72% 0in /  0.0mm 0 W/m2
03:38 31.8 °F /  -0.1 °C 24.1 °F /  -4.4 °C 30.2in /  1023.7hPa Calm   2mph /  3.2km/h 73% 0in /  0.0mm 0 W/m2
03:43 31.6 °F /  -0.2 °C 23.9 °F /  -4.5 °C 30.2in /  1023.4hPa Calm   1mph /  1.6km/h 73% 0in /  0.0mm 0 W/m2
03:48 31.6 °F /  -0.2 °C 23.9 °F /  -4.5 °C 30.2in /  1023.4hPa Calm   1mph /  1.6km/h 73% 0in /  0.0mm 0 W/m2
03:53 31.6 °F /  -0.2 °C 23.9 °F /  -4.5 °C 30.2in /  1023.4hPa SSE 0.9mph /  1.4km/h 2mph /  3.2km/h 73% 0in /  0.0mm 0 W/m2
03:58 32.2 °F /  0.1 °C 23.9 °F /  -4.5 °C 30.2in /  1023.4hPa Calm   2mph /  3.2km/h 71% 0in /  0.0mm 0 W/m2
04:03 32.5 °F /  0.3 °C 23.9 °F /  -4.5 °C 30.2in /  1023.4hPa WNW 0.9mph /  1.4km/h 2mph /  3.2km/h 70% 0in /  0.0mm 0 W/m2
04:08 32.9 °F /  0.5 °C 24.3 °F /  -4.3 °C 30.2in /  1023.4hPa SSW 0.9mph /  1.4km/h 3mph /  4.8km/h 70% 0in /  0.0mm 0 W/m2
04:13 32.9 °F /  0.5 °C 23.9 °F /  -4.5 °C 30.2in /  1023.4hPa WNW 0.9mph /  1.4km/h 1mph /  1.6km/h 69% 0in /  0.0mm 0 W/m2
04:18 32.7 °F /  0.4 °C 24.1 °F /  -4.4 °C 30.2in /  1023.4hPa Calm   3mph /  4.8km/h 70% 0in /  0.0mm 0 W/m2
04:23 32.5 °F /  0.3 °C 23.9 °F /  -4.5 °C 30.2in /  1023.4hPa West 0.9mph /  1.4km/h 1mph /  1.6km/h 70% 0in /  0.0mm 0 W/m2
04:28 32.5 °F /  0.3 °C 23.9 °F /  -4.5 °C 30.2in /  1023.4hPa NW 0.9mph /  1.4km/h 3mph /  4.8km/h 70% 0in /  0.0mm 0 W/m2
04:33 32.9 °F /  0.5 °C 23.9 °F /  -4.5 °C 30.2in /  1023.4hPa Calm   1mph /  1.6km/h 69% 0in /  0.0mm 0 W/m2
04:38 32.9 °F /  0.5 °C 23.9 °F /  -4.5 °C 30.2in /  1023.4hPa Calm   1mph /  1.6km/h 69% 0in /  0.0mm 0 W/m2
04:43 32.9 °F /  0.5 °C 23.9 °F /  -4.5 °C 30.2in /  1023.4hPa Calm   1mph /  1.6km/h 69% 0in /  0.0mm 0 W/m2
04:48 32.9 °F /  0.5 °C 23.9 °F /  -4.5 °C 30.2in /  1023.0hPa Calm   1mph /  1.6km/h 69% 0in /  0.0mm 0 W/m2
04:53 32.5 °F /  0.3 °C 23.5 °F /  -4.7 °C 30.2in /  1023.0hPa Calm     69% 0in /  0.0mm 0 W/m2
04:59 32.4 °F /  0.2 °C 23.7 °F /  -4.6 °C 30.2in /  1023.0hPa Calm     70% 0in /  0.0mm 0 W/m2
05:04 32.2 °F /  0.1 °C 23.9 °F /  -4.5 °C 30.2in /  1023.0hPa Calm     71% 0in /  0.0mm 0 W/m2
05:09 31.8 °F /  -0.1 °C 23.5 °F /  -4.7 °C 30.2in /  1023.0hPa West 0.9mph /  1.4km/h 1mph /  1.6km/h 71% 0in /  0.0mm 0 W/m2
05:14 31.8 °F /  -0.1 °C 23.9 °F /  -4.5 °C 30.2in /  1023.0hPa Calm   1mph /  1.6km/h 72% 0in /  0.0mm 0 W/m2
05:19 31.6 °F /  -0.2 °C 23.7 °F /  -4.6 °C 30.2in /  1022.7hPa Calm   1mph /  1.6km/h 72% 0in /  0.0mm 0 W/m2
05:24 31.3 °F /  -0.4 °C 23.7 °F /  -4.6 °C 30.2in /  1022.7hPa Calm     73% 0in /  0.0mm 0 W/m2
05:29 30.9 °F /  -0.6 °C 23.4 °F /  -4.8 °C 30.2in /  1022.7hPa West 0.9mph /  1.4km/h 1mph /  1.6km/h 73% 0in /  0.0mm 0 W/m2
05:34 30.7 °F /  -0.7 °C 23.2 °F /  -4.9 °C 30.2in /  1022.7hPa Calm   1mph /  1.6km/h 73% 0in /  0.0mm 0 W/m2
05:39 30.7 °F /  -0.7 °C 23.4 °F /  -4.8 °C 30.2in /  1022.7hPa Calm     74% 0in /  0.0mm 0 W/m2
05:44 30.6 °F /  -0.8 °C 23.2 °F /  -4.9 °C 30.2in /  1022.7hPa Calm     74% 0in /  0.0mm 0 W/m2
05:49 30.6 °F /  -0.8 °C 23.5 °F /  -4.7 °C 30.2in /  1022.7hPa Calm   1mph /  1.6km/h 75% 0in /  0.0mm 0 W/m2
05:54 30.4 °F /  -0.9 °C 23.4 °F /  -4.8 °C 30.2in /  1022.7hPa Calm   1mph /  1.6km/h 75% 0in /  0.0mm 0 W/m2
05:59 30.4 °F /  -0.9 °C 23.4 °F /  -4.8 °C 30.2in /  1022.7hPa Calm     75% 0in /  0.0mm 0 W/m2
06:04 30.4 °F /  -0.9 °C 23.4 °F /  -4.8 °C 30.2in /  1022.7hPa Calm     75% 0in /  0.0mm 0 W/m2
06:09 30.4 °F /  -0.9 °C 23.4 °F /  -4.8 °C 30.2in /  1022.7hPa Calm   1mph /  1.6km/h 75% 0in /  0.0mm 0 W/m2
06:14 30.2 °F /  -1 °C 23.5 °F /  -4.7 °C 30.2in /  1022.7hPa West 0.9mph /  1.4km/h 2mph /  3.2km/h 76% 0in /  0.0mm 0 W/m2
06:19 30.2 °F /  -1 °C 23.5 °F /  -4.7 °C 30.2in /  1022.7hPa Calm     76% 0in /  0.0mm 0 W/m2
06:24 30.4 °F /  -0.9 °C 23.7 °F /  -4.6 °C 30.2in /  1022.7hPa Calm   2mph /  3.2km/h 76% 0in /  0.0mm 0 W/m2
06:29 30.2 °F /  -1 °C 23.5 °F /  -4.7 °C 30.2in /  1022.7hPa West 0.9mph /  1.4km/h 1mph /  1.6km/h 76% 0in /  0.0mm 0 W/m2
06:34 30 °F /  -1.1 °C 23.4 °F /  -4.8 °C 30.2in /  1022.7hPa West 0.9mph /  1.4km/h 1mph /  1.6km/h 76% 0in /  0.0mm 0 W/m2
06:39 29.8 °F /  -1.2 °C 23.2 °F /  -4.9 °C 30.2in /  1022.4hPa Calm   1mph /  1.6km/h 76% 0in /  0.0mm 0 W/m2
06:44 30 °F /  -1.1 °C 23.4 °F /  -4.8 °C 30.2in /  1022.4hPa Calm   1mph /  1.6km/h 76% 0in /  0.0mm 0 W/m2
06:49 30.2 °F /  -1 °C 23.5 °F /  -4.7 °C 30.2in /  1022.4hPa Calm   1mph /  1.6km/h 76% 0in /  0.0mm 0 W/m2
06:54 30.4 °F /  -0.9 °C 23.4 °F /  -4.8 °C 30.2in /  1022.4hPa West 0.9mph /  1.4km/h 1mph /  1.6km/h 75% 0in /  0.0mm 0 W/m2
06:59 30.4 °F /  -0.9 °C 23.4 °F /  -4.8 °C 30.2in /  1022.4hPa Calm     75% 0in /  0.0mm 0 W/m2
07:04 30.6 °F /  -0.8 °C 23.5 °F /  -4.7 °C 30.2in /  1022.4hPa Calm     75% 0in /  0.0mm 0 W/m2
07:09 30.4 °F /  -0.9 °C 23.4 °F /  -4.8 °C 30.2in /  1022.4hPa Calm     75% 0in /  0.0mm 0 W/m2
07:14 30 °F /  -1.1 °C 23 °F /  -5 °C 30.2in /  1022.4hPa Calm     75% 0in /  0.0mm 5 W/m2
07:19 29.8 °F /  -1.2 °C 23.2 °F /  -4.9 °C 30.2in /  1022.4hPa Calm   1mph /  1.6km/h 76% 0in /  0.0mm 7 W/m2
07:24 29.8 °F /  -1.2 °C 23.2 °F /  -4.9 °C 30.2in /  1022.4hPa Calm     76% 0in /  0.0mm 9 W/m2
07:30 29.7 °F /  -1.3 °C 23 °F /  -5 °C 30.2in /  1022.4hPa West 0.9mph /  1.4km/h 1mph /  1.6km/h 76% 0in /  0.0mm 11 W/m2
07:35 29.7 °F /  -1.3 °C 23.4 °F /  -4.8 °C 30.2in /  1022.4hPa Calm     77% 0in /  0.0mm 14 W/m2
07:40 29.5 °F /  -1.4 °C 23.2 °F /  -4.9 °C 30.2in /  1022.4hPa West 0.9mph /  1.4km/h 1mph /  1.6km/h 77% 0in /  0.0mm 16 W/m2
07:45 29.5 °F /  -1.4 °C 23.2 °F /  -4.9 °C 30.2in /  1022.4hPa Calm   1mph /  1.6km/h 77% 0in /  0.0mm 18 W/m2
07:50 29.7 °F /  -1.3 °C 23.7 °F /  -4.6 °C 30.2in /  1022.4hPa Calm     78% 0in /  0.0mm 19 W/m2
07:55 29.7 °F /  -1.3 °C 23.7 °F /  -4.6 °C 30.2in /  1022.4hPa Calm     78% 0in /  0.0mm 21 W/m2
08:00 29.8 °F /  -1.2 °C 23.5 °F /  -4.7 °C 30.2in /  1022.4hPa Calm     77% 0in /  0.0mm 23 W/m2
08:05 30 °F /  -1.1 °C 23.7 °F /  -4.6 °C 30.2in /  1022.4hPa Calm     77% 0in /  0.0mm 25 W/m2
08:10 30.2 °F /  -1 °C 23.5 °F /  -4.7 °C 30.2in /  1022.4hPa Calm     76% 0in /  0.0mm 25 W/m2
08:15 30.6 °F /  -0.8 °C 23.5 °F /  -4.7 °C 30.2in /  1022.4hPa Calm     75% 0in /  0.0mm 26 W/m2
08:20 31.1 °F /  -0.5 °C 23.7 °F /  -4.6 °C 30.2in /  1022.4hPa Calm   1mph /  1.6km/h 74% 0in /  0.0mm 135 W/m2
08:25 31.6 °F /  -0.2 °C 23.9 °F /  -4.5 °C 30.2in /  1022.4hPa West 0.9mph /  1.4km/h 2mph /  3.2km/h 73% 0in /  0.0mm 148 W/m2
08:30 32.4 °F /  0.2 °C 24.3 °F /  -4.3 °C 30.2in /  1022.4hPa Calm     72% 0in /  0.0mm 160 W/m2
08:35 32.5 °F /  0.3 °C 24.3 °F /  -4.3 °C 30.2in /  1022.4hPa Calm   2mph /  3.2km/h 71% 0in /  0.0mm 174 W/m2
08:40 33.1 °F /  0.6 °C 24.4 °F /  -4.2 °C 30.2in /  1022.4hPa Calm     70% 0in /  0.0mm 190 W/m2
08:46 33.3 °F /  0.7 °C 24.3 °F /  -4.3 °C 30.2in /  1022.4hPa Calm   2mph /  3.2km/h 69% 0in /  0.0mm 202 W/m2
08:51 33.6 °F /  0.9 °C 24.6 °F /  -4.1 °C 30.2in /  1022.4hPa Calm   1mph /  1.6km/h 69% 0in /  0.0mm 214 W/m2
08:56 34.2 °F /  1.2 °C 25 °F /  -3.9 °C 30.2in /  1022.4hPa West 0.9mph /  1.4km/h 1mph /  1.6km/h 69% 0in /  0.0mm 227 W/m2
09:01 34.5 °F /  1.4 °C 24.6 °F /  -4.1 °C 30.2in /  1022.4hPa Calm   2mph /  3.2km/h 67% 0in /  0.0mm 241 W/m2
09:06 34.9 °F /  1.6 °C 24.6 °F /  -4.1 °C 30.2in /  1022.4hPa Calm   1mph /  1.6km/h 66% 0in /  0.0mm 253 W/m2
09:11 35.2 °F /  1.8 °C 25 °F /  -3.9 °C 30.2in /  1022.4hPa Calm   2mph /  3.2km/h 66% 0in /  0.0mm 267 W/m2
09:16 35.6 °F /  2 °C 25 °F /  -3.9 °C 30.2in /  1022.4hPa Calm   1mph /  1.6km/h 65% 0in /  0.0mm 279 W/m2
09:21 36.1 °F /  2.3 °C 25.2 °F /  -3.8 °C 30.2in /  1022.4hPa NNE 0.9mph /  1.4km/h 2mph /  3.2km/h 64% 0in /  0.0mm 292 W/m2
09:26 36.7 °F /  2.6 °C 25.7 °F /  -3.5 °C 30.2in /  1022.4hPa East 2mph /  3.2km/h 3mph /  4.8km/h 64% 0in /  0.0mm 302 W/m2
09:31 37.2 °F /  2.9 °C 25.3 °F /  -3.7 °C 30.2in /  1022.4hPa East 6mph /  9.7km/h 6mph /  9.7km/h 62% 0in /  0.0mm 37 W/m2
09:36 37.6 °F /  3.1 °C 25 °F /  -3.9 °C 30.2in /  1022.4hPa NE 2.9mph /  4.7km/h 4mph /  6.4km/h 60% 0in /  0.0mm 98 W/m2
09:41 38.1 °F /  3.4 °C 25 °F /  -3.9 °C 30.2in /  1022.4hPa East 6mph /  9.7km/h 6mph /  9.7km/h 59% 0in /  0.0mm 345 W/m2
09:46 38.7 °F /  3.7 °C 24.8 °F /  -4 °C 30.2in /  1022.4hPa NE 2mph /  3.2km/h 3mph /  4.8km/h 57% 0in /  0.0mm 357 W/m2
09:51 38.8 °F /  3.8 °C 25 °F /  -3.9 °C 30.2in /  1022.4hPa NE 2mph /  3.2km/h 7mph /  11.3km/h 57% 0in /  0.0mm 367 W/m2
09:56 39.4 °F /  4.1 °C 25.3 °F /  -3.7 °C 30.2in /  1022.4hPa NNW 0.9mph /  1.4km/h 5mph /  8km/h 57% 0in /  0.0mm 381 W/m2
10:01 39.9 °F /  4.4 °C 25.5 °F /  -3.6 °C 30.2in /  1022.4hPa West 2mph /  3.2km/h 3mph /  4.8km/h 56% 0in /  0.0mm 392 W/m2
10:06 40.3 °F /  4.6 °C 25.9 °F /  -3.4 °C 30.2in /  1022.4hPa NNW 2.9mph /  4.7km/h 3mph /  4.8km/h 56% 0in /  0.0mm 404 W/m2
10:11 40.5 °F /  4.7 °C 26.1 °F /  -3.3 °C 30.2in /  1022.4hPa East 2mph /  3.2km/h 4mph /  6.4km/h 56% 0in /  0.0mm 415 W/m2
10:16 40.8 °F /  4.9 °C 25.5 °F /  -3.6 °C 30.2in /  1022.4hPa ENE 2mph /  3.2km/h 4mph /  6.4km/h 54% 0in /  0.0mm 429 W/m2
10:21 41.5 °F /  5.3 °C 26.1 °F /  -3.3 °C 30.2in /  1022.4hPa ESE 2.9mph /  4.7km/h 4mph /  6.4km/h 54% 0in /  0.0mm 438 W/m2
10:26 42.1 °F /  5.6 °C 26.2 °F /  -3.2 °C 30.2in /  1022.4hPa Calm   2mph /  3.2km/h 53% 0in /  0.0mm 452 W/m2
10:31 42.3 °F /  5.7 °C 25.9 °F /  -3.4 °C 30.2in /  1022.4hPa ENE 4.9mph /  7.9km/h 5mph /  8km/h 52% 0in /  0.0mm 462 W/m2
10:36 42.4 °F /  5.8 °C 25.5 °F /  -3.6 °C 30.2in /  1022.0hPa NE 2mph /  3.2km/h 4mph /  6.4km/h 51% 0in /  0.0mm 471 W/m2
10:41 43 °F /  6.1 °C 26.6 °F /  -3 °C 30.2in /  1022.0hPa NW 0.9mph /  1.4km/h 4mph /  6.4km/h 52% 0in /  0.0mm 482 W/m2
10:46 43.5 °F /  6.4 °C 26.6 °F /  -3 °C 30.2in /  1022.0hPa NE 2mph /  3.2km/h 6mph /  9.7km/h 51% 0in /  0.0mm 494 W/m2
10:51 43.3 °F /  6.3 °C 25.9 °F /  -3.4 °C 30.2in /  1022.0hPa SE 2mph /  3.2km/h 3mph /  4.8km/h 50% 0in /  0.0mm 504 W/m2
10:56 44.2 °F /  6.8 °C 26.8 °F /  -2.9 °C 30.2in /  1022.0hPa SE 0.9mph /  1.4km/h 4mph /  6.4km/h 50% 0in /  0.0mm 515 W/m2
11:01 45.1 °F /  7.3 °C 26.6 °F /  -3 °C 30.2in /  1022.0hPa ENE 4mph /  6.4km/h 5mph /  8km/h 48% 0in /  0.0mm 524 W/m2
11:06 45.1 °F /  7.3 °C 26.1 °F /  -3.3 °C 30.2in /  1022.0hPa East 2.9mph /  4.7km/h 4mph /  6.4km/h 47% 0in /  0.0mm 533 W/m2
11:11 45.3 °F /  7.4 °C 26.2 °F /  -3.2 °C 30.2in /  1021.7hPa ESE 2mph /  3.2km/h 4mph /  6.4km/h 47% 0in /  0.0mm 543 W/m2
11:16 45.9 °F /  7.7 °C 25.7 °F /  -3.5 °C 30.2in /  1021.7hPa SE 4.9mph /  7.9km/h 9mph /  14.5km/h 45% 0in /  0.0mm 550 W/m2
11:21 46 °F /  7.8 °C 25.9 °F /  -3.4 °C 30.2in /  1021.7hPa East 4mph /  6.4km/h 5mph /  8km/h 45% 0in /  0.0mm 555 W/m2
11:26 46.2 °F /  7.9 °C 25.5 °F /  -3.6 °C 30.2in /  1021.7hPa East 0.9mph /  1.4km/h 8mph /  12.9km/h 44% 0in /  0.0mm 564 W/m2
11:31 46.4 °F /  8 °C 25.7 °F /  -3.5 °C 30.2in /  1021.3hPa SSE 2.9mph /  4.7km/h 5mph /  8km/h 44% 0in /  0.0mm 573 W/m2
11:36 46.9 °F /  8.3 °C 26.2 °F /  -3.2 °C 30.2in /  1021.3hPa ENE 4.9mph /  7.9km/h 8mph /  12.9km/h 44% 0in /  0.0mm 580 W/m2
11:41 46.6 °F /  8.1 °C 25.9 °F /  -3.4 °C 30.2in /  1021.3hPa ENE 2mph /  3.2km/h 4mph /  6.4km/h 44% 0in /  0.0mm 589 W/m2
11:46 46.2 °F /  7.9 °C 25.5 °F /  -3.6 °C 30.2in /  1021.3hPa East 9mph /  14.5km/h 9mph /  14.5km/h 44% 0in /  0.0mm 592 W/m2
11:51 46.6 °F /  8.1 °C 26.4 °F /  -3.1 °C 30.2in /  1021.3hPa NNW 2mph /  3.2km/h 5mph /  8km/h 45% 0in /  0.0mm 603 W/m2
11:56 46.9 °F /  8.3 °C 26.8 °F /  -2.9 °C 30.2in /  1021.0hPa North 0.9mph /  1.4km/h 8mph /  12.9km/h 45% 0in /  0.0mm 610 W/m2
12:01 46.9 °F /  8.3 °C 25.5 °F /  -3.6 °C 30.2in /  1021.0hPa East 4mph /  6.4km/h 8mph /  12.9km/h 43% 0in /  0.0mm 613 W/m2
12:06 46.8 °F /  8.2 °C 26.1 °F /  -3.3 °C 30.2in /  1021.0hPa NE 2mph /  3.2km/h 7mph /  11.3km/h 44% 0in /  0.0mm 619 W/m2
12:11 46.9 °F /  8.3 °C 25.5 °F /  -3.6 °C 30.2in /  1021.0hPa NE 2mph /  3.2km/h 3mph /  4.8km/h 43% 0in /  0.0mm 624 W/m2
12:16 47.1 °F /  8.4 °C 25.7 °F /  -3.5 °C 30.1in /  1020.7hPa NE 4.9mph /  7.9km/h 7mph /  11.3km/h 43% 0in /  0.0mm 635 W/m2
12:21 46.8 °F /  8.2 °C 25.5 °F /  -3.6 °C 30.1in /  1020.7hPa NE 4mph /  6.4km/h 8mph /  12.9km/h 43% 0in /  0.0mm 642 W/m2
12:26 47.1 °F /  8.4 °C 25.2 °F /  -3.8 °C 30.1in /  1020.7hPa East 4.9mph /  7.9km/h 5mph /  8km/h 42% 0in /  0.0mm 645 W/m2
12:31 47.7 °F /  8.7 °C 25.7 °F /  -3.5 °C 30.1in /  1020.7hPa ESE 6mph /  9.7km/h 6mph /  9.7km/h 42% 0in /  0.0mm 652 W/m2
12:36 48.6 °F /  9.2 °C 25.3 °F /  -3.7 °C 30.1in /  1020.3hPa East 2.9mph /  4.7km/h 5mph /  8km/h 40% 0in /  0.0mm 654 W/m2
12:41 48.7 °F /  9.3 °C 23.5 °F /  -4.7 °C 30.1in /  1020.3hPa ESE 8.9mph /  14.3km/h 11mph /  17.7km/h 37% 0in /  0.0mm 656 W/m2
12:46 48.4 °F /  9.1 °C 23.4 °F /  -4.8 °C 30.1in /  1020.3hPa SSE 2.9mph /  4.7km/h 9mph /  14.5km/h 37% 0in /  0.0mm 661 W/m2
12:51 48.6 °F /  9.2 °C 24.8 °F /  -4 °C 30.1in /  1020.3hPa SE 2.9mph /  4.7km/h 11mph /  17.7km/h 39% 0in /  0.0mm 666 W/m2
12:56 48.9 °F /  9.4 °C 25 °F /  -3.9 °C 30.1in /  1020.3hPa East 4.9mph /  7.9km/h 5mph /  8km/h 39% 0in /  0.0mm 666 W/m2
13:01 48.9 °F /  9.4 °C 25 °F /  -3.9 °C 30.1in /  1020.0hPa NNW 2mph /  3.2km/h 5mph /  8km/h 39% 0in /  0.0mm 666 W/m2
13:06 48.9 °F /  9.4 °C 25.7 °F /  -3.5 °C 30.1in /  1020.0hPa SE 0.9mph /  1.4km/h 7mph /  11.3km/h 40% 0in /  0.0mm 670 W/m2
13:11 49.3 °F /  9.6 °C 24.8 °F /  -4 °C 30.1in /  1020.0hPa East 2mph /  3.2km/h 3mph /  4.8km/h 38% 0in /  0.0mm 670 W/m2
13:16 49.8 °F /  9.9 °C 25.2 °F /  -3.8 °C 30.1in /  1020.0hPa SE 2mph /  3.2km/h 5mph /  8km/h 38% 0in /  0.0mm 675 W/m2
13:21 49.5 °F /  9.7 °C 25 °F /  -3.9 °C 30.1in /  1019.6hPa ESE 4mph /  6.4km/h 7mph /  11.3km/h 38% 0in /  0.0mm 675 W/m2
13:26 49.3 °F /  9.6 °C 24.8 °F /  -4 °C 30.1in /  1019.6hPa East 4mph /  6.4km/h 5mph /  8km/h 38% 0in /  0.0mm 671 W/m2
13:31 49.5 °F /  9.7 °C 25.5 °F /  -3.6 °C 30.1in /  1019.6hPa ESE 0.9mph /  1.4km/h 2mph /  3.2km/h 39% 0in /  0.0mm 677 W/m2
13:36 49.3 °F /  9.6 °C 25.3 °F /  -3.7 °C 30.1in /  1019.6hPa East 4mph /  6.4km/h 6mph /  9.7km/h 39% 0in /  0.0mm 675 W/m2
13:41 49.6 °F /  9.8 °C 25.7 °F /  -3.5 °C 30.1in /  1019.3hPa ESE 4mph /  6.4km/h 6mph /  9.7km/h 39% 0in /  0.0mm 673 W/m2
13:46 49.8 °F /  9.9 °C 25.2 °F /  -3.8 °C 30.1in /  1019.3hPa ENE 2mph /  3.2km/h 3mph /  4.8km/h 38% 0in /  0.0mm 677 W/m2
13:51 49.8 °F /  9.9 °C 25.2 °F /  -3.8 °C 30.1in /  1019.3hPa SE 2.9mph /  4.7km/h 6mph /  9.7km/h 38% 0in /  0.0mm 675 W/m2
13:56 49.8 °F /  9.9 °C 26.4 °F /  -3.1 °C 30.1in /  1019.3hPa East 2mph /  3.2km/h 8mph /  12.9km/h 40% 0in /  0.0mm 671 W/m2
14:01 50.2 °F /  10.1 °C 25.5 °F /  -3.6 °C 30.1in /  1019.3hPa NE 2mph /  3.2km/h 4mph /  6.4km/h 38% 0in /  0.0mm 671 W/m2
14:06 50.4 °F /  10.2 °C 25.7 °F /  -3.5 °C 30.1in /  1019.0hPa ENE 4.9mph /  7.9km/h 8mph /  12.9km/h 38% 0in /  0.0mm 668 W/m2
14:11 50 °F /  10 °C 25.3 °F /  -3.7 °C 30.1in /  1019.0hPa NNE 0.9mph /  1.4km/h 5mph /  8km/h 38% 0in /  0.0mm 666 W/m2
14:16 49.8 °F /  9.9 °C 24.6 °F /  -4.1 °C 30.1in /  1019.0hPa ENE 2.9mph /  4.7km/h 4mph /  6.4km/h 37% 0in /  0.0mm 661 W/m2
14:22 50.4 °F /  10.2 °C 25.7 °F /  -3.5 °C 30.1in /  1019.0hPa ENE 2.9mph /  4.7km/h 6mph /  9.7km/h 38% 0in /  0.0mm 659 W/m2
14:27 50.7 °F /  10.4 °C 26.6 °F /  -3 °C 30.1in /  1019.0hPa NW 2.9mph /  4.7km/h 6mph /  9.7km/h 39% 0in /  0.0mm 650 W/m2
14:32 51.3 °F /  10.7 °C 25.2 °F /  -3.8 °C 30.1in /  1019.0hPa SE 2mph /  3.2km/h 6mph /  9.7km/h 36% 0in /  0.0mm 652 W/m2
14:37 51.3 °F /  10.7 °C 25.2 °F /  -3.8 °C 30.1in /  1018.6hPa North 0.9mph /  1.4km/h 3mph /  4.8km/h 36% 0in /  0.0mm 645 W/m2
14:42 51.3 °F /  10.7 °C 25.2 °F /  -3.8 °C 30.1in /  1018.6hPa SSW 2.9mph /  4.7km/h 3mph /  4.8km/h 36% 0in /  0.0mm 643 W/m2
14:47 51.3 °F /  10.7 °C 25.9 °F /  -3.4 °C 30.1in /  1018.6hPa SE 2.9mph /  4.7km/h 10mph /  16.1km/h 37% 0in /  0.0mm 638 W/m2
14:52 51.6 °F /  10.9 °C 25.5 °F /  -3.6 °C 30.1in /  1018.6hPa NE 2.9mph /  4.7km/h 3mph /  4.8km/h 36% 0in /  0.0mm 633 W/m2
14:57 51.4 °F /  10.8 °C 25.3 °F /  -3.7 °C 30.1in /  1018.3hPa SE 2.9mph /  4.7km/h 7mph /  11.3km/h 36% 0in /  0.0mm 628 W/m2
15:02 51.3 °F /  10.7 °C 24.6 °F /  -4.1 °C 30.1in /  1018.3hPa Calm   4mph /  6.4km/h 35% 0in /  0.0mm 624 W/m2
15:07 51.3 °F /  10.7 °C 25.2 °F /  -3.8 °C 30.1in /  1018.3hPa NE 4mph /  6.4km/h 4mph /  6.4km/h 36% 0in /  0.0mm 621 W/m2
15:12 51.4 °F /  10.8 °C 24.6 °F /  -4.1 °C 30.1in /  1018.3hPa NE 0.9mph /  1.4km/h 2mph /  3.2km/h 35% 0in /  0.0mm 615 W/m2
15:17 51.8 °F /  11 °C 25.7 °F /  -3.5 °C 30.1in /  1018.0hPa ENE 2mph /  3.2km/h 3mph /  4.8km/h 36% 0in /  0.0mm 605 W/m2
15:22 52.3 °F /  11.3 °C 24.8 °F /  -4 °C 30.1in /  1018.0hPa NE 0.9mph /  1.4km/h 3mph /  4.8km/h 34% 0in /  0.0mm 606 W/m2
15:27 52.5 °F /  11.4 °C 25.7 °F /  -3.5 °C 30.1in /  1018.0hPa ENE 4.9mph /  7.9km/h 6mph /  9.7km/h 35% 0in /  0.0mm 592 W/m2
15:32 52.3 °F /  11.3 °C 25.5 °F /  -3.6 °C 30.1in /  1018.0hPa ESE 4mph /  6.4km/h 4mph /  6.4km/h 35% 0in /  0.0mm 585 W/m2
15:37 52.3 °F /  11.3 °C 25.5 °F /  -3.6 °C 30.1in /  1018.0hPa NW 2mph /  3.2km/h 5mph /  8km/h 35% 0in /  0.0mm 575 W/m2
15:42 52.9 °F /  11.6 °C 25.3 °F /  -3.7 °C 30.1in /  1018.0hPa NNE 2mph /  3.2km/h 2mph /  3.2km/h 34% 0in /  0.0mm 570 W/m2
15:47 52.7 °F /  11.5 °C 25.9 °F /  -3.4 °C 30.1in /  1018.0hPa NE 2.9mph /  4.7km/h 5mph /  8km/h 35% 0in /  0.0mm 564 W/m2
15:52 53.1 °F /  11.7 °C 25.3 °F /  -3.7 °C 30.1in /  1018.0hPa South 2mph /  3.2km/h 2mph /  3.2km/h 34% 0in /  0.0mm 550 W/m2
15:57 53.1 °F /  11.7 °C 25.3 °F /  -3.7 °C 30.1in /  1017.6hPa NW 2.9mph /  4.7km/h 5mph /  8km/h 34% 0in /  0.0mm 545 W/m2
16:02 52.5 °F /  11.4 °C 24.3 °F /  -4.3 °C 30.1in /  1017.6hPa ESE 2mph /  3.2km/h 2mph /  3.2km/h 33% 0in /  0.0mm 536 W/m2
16:07 52.7 °F /  11.5 °C 25.2 °F /  -3.8 °C 30.1in /  1017.6hPa NNE 4.9mph /  7.9km/h 5mph /  8km/h 34% 0in /  0.0mm 526 W/m2
16:12 53.1 °F /  11.7 °C 23.9 °F /  -4.5 °C 30in /  1017.3hPa West 4mph /  6.4km/h 7mph /  11.3km/h 32% 0in /  0.0mm 512 W/m2
16:18 53.1 °F /  11.7 °C 25.3 °F /  -3.7 °C 30in /  1017.3hPa NE 2mph /  3.2km/h 4mph /  6.4km/h 34% 0in /  0.0mm 503 W/m2
16:23 53.2 °F /  11.8 °C 26.2 °F /  -3.2 °C 30in /  1017.3hPa West 0.9mph /  1.4km/h 7mph /  11.3km/h 35% 0in /  0.0mm 494 W/m2
16:28 53.2 °F /  11.8 °C 27 °F /  -2.8 °C 30in /  1017.3hPa NNE 0.9mph /  1.4km/h 2mph /  3.2km/h 36% 0in /  0.0mm 485 W/m2
16:33 53.4 °F /  11.9 °C 25.7 °F /  -3.5 °C 30in /  1016.9hPa East 4mph /  6.4km/h 5mph /  8km/h 34% 0in /  0.0mm 476 W/m2
16:38 53.2 °F /  11.8 °C 24.8 °F /  -4 °C 30in /  1016.9hPa ENE 2mph /  3.2km/h 5mph /  8km/h 33% 0in /  0.0mm 462 W/m2
16:43 53.1 °F /  11.7 °C 24.8 °F /  -4 °C 30in /  1016.9hPa Calm   4mph /  6.4km/h 33% 0in /  0.0mm 452 W/m2
16:48 53.4 °F /  11.9 °C 27.1 °F /  -2.7 °C 30in /  1016.9hPa ENE 2.9mph /  4.7km/h 3mph /  4.8km/h 36% 0in /  0.0mm 441 W/m2
16:53 53.8 °F /  12.1 °C 25.3 °F /  -3.7 °C 30in /  1016.9hPa NNW 0.9mph /  1.4km/h 4mph /  6.4km/h 33% 0in /  0.0mm 429 W/m2
16:58 54 °F /  12.2 °C 26.2 °F /  -3.2 °C 30in /  1016.9hPa ENE 2mph /  3.2km/h 3mph /  4.8km/h 34% 0in /  0.0mm 420 W/m2
17:03 54.1 °F /  12.3 °C 25.7 °F /  -3.5 °C 30in /  1016.9hPa ESE 2mph /  3.2km/h 2mph /  3.2km/h 33% 0in /  0.0mm 408 W/m2
17:08 54 °F /  12.2 °C 25.5 °F /  -3.6 °C 30in /  1016.9hPa SW 0.9mph /  1.4km/h 4mph /  6.4km/h 33% 0in /  0.0mm 394 W/m2
17:13 54 °F /  12.2 °C 26.2 °F /  -3.2 °C 30in /  1016.9hPa WNW 2.9mph /  4.7km/h 4mph /  6.4km/h 34% 0in /  0.0mm 385 W/m2
17:18 54.3 °F /  12.4 °C 27.3 °F /  -2.6 °C 30in /  1016.6hPa ENE 2.9mph /  4.7km/h 5mph /  8km/h 35% 0in /  0.0mm 373 W/m2
17:23 54.3 °F /  12.4 °C 26.6 °F /  -3 °C 30in /  1016.6hPa ENE 2mph /  3.2km/h 2mph /  3.2km/h 34% 0in /  0.0mm 360 W/m2
17:29 54.5 °F /  12.5 °C 26.8 °F /  -2.9 °C 30in /  1016.6hPa NNW 0.9mph /  1.4km/h 5mph /  8km/h 34% 0in /  0.0mm 348 W/m2
17:34 54.3 °F /  12.4 °C 27.3 °F /  -2.6 °C 30in /  1016.6hPa NNE 0.9mph /  1.4km/h 2mph /  3.2km/h 35% 0in /  0.0mm 336 W/m2
17:39 54.7 °F /  12.6 °C 26.8 °F /  -2.9 °C 30in /  1016.6hPa NW 2mph /  3.2km/h 2mph /  3.2km/h 34% 0in /  0.0mm 322 W/m2
17:44 54.9 °F /  12.7 °C 28.4 °F /  -2 °C 30in /  1016.6hPa West 2mph /  3.2km/h 3mph /  4.8km/h 36% 0in /  0.0mm 309 W/m2
17:49 54.7 °F /  12.6 °C 26.8 °F /  -2.9 °C 30in /  1016.3hPa SE 0.9mph /  1.4km/h 4mph /  6.4km/h 34% 0in /  0.0mm 299 W/m2
17:54 54.5 °F /  12.5 °C 26.8 °F /  -2.9 °C 30in /  1016.3hPa North 0.9mph /  1.4km/h 6mph /  9.7km/h 34% 0in /  0.0mm 283 W/m2
17:59 54.7 °F /  12.6 °C 26.8 °F /  -2.9 °C 30in /  1016.3hPa East 0.9mph /  1.4km/h 3mph /  4.8km/h 34% 0in /  0.0mm 272 W/m2
18:04 54.7 °F /  12.6 °C 26.1 °F /  -3.3 °C 30in /  1016.3hPa NNW 0.9mph /  1.4km/h 2mph /  3.2km/h 33% 0in /  0.0mm 260 W/m2
18:09 55 °F /  12.8 °C 26.4 °F /  -3.1 °C 30in /  1016.3hPa NNW 4mph /  6.4km/h 5mph /  8km/h 33% 0in /  0.0mm 250 W/m2
18:14 54.9 °F /  12.7 °C 25.5 °F /  -3.6 °C 30in /  1016.3hPa West 0.9mph /  1.4km/h 7mph /  11.3km/h 32% 0in /  0.0mm 236 W/m2
18:19 54.3 °F /  12.4 °C 25.2 °F /  -3.8 °C 30in /  1016.3hPa NNW 4mph /  6.4km/h 5mph /  8km/h 32% 0in /  0.0mm 221 W/m2
18:24 54.3 °F /  12.4 °C 25.9 °F /  -3.4 °C 30in /  1016.3hPa WNW 2mph /  3.2km/h 3mph /  4.8km/h 33% 0in /  0.0mm 204 W/m2
18:29 54.3 °F /  12.4 °C 25.9 °F /  -3.4 °C 30in /  1016.3hPa West 6mph /  9.7km/h 6mph /  9.7km/h 33% 0in /  0.0mm 190 W/m2
18:34 54.3 °F /  12.4 °C 25.9 °F /  -3.4 °C 30in /  1016.3hPa NNW 2mph /  3.2km/h 2mph /  3.2km/h 33% 0in /  0.0mm 174 W/m2
18:39 54.5 °F /  12.5 °C 26.1 °F /  -3.3 °C 30in /  1016.3hPa NW 0.9mph /  1.4km/h 2mph /  3.2km/h 33% 0in /  0.0mm 156 W/m2
18:44 54.9 °F /  12.7 °C 26.2 °F /  -3.2 °C 30in /  1016.3hPa NE 0.9mph /  1.4km/h 2mph /  3.2km/h 33% 0in /  0.0mm 146 W/m2
18:49 54.9 °F /  12.7 °C 24.8 °F /  -4 °C 30in /  1016.3hPa Calm   3mph /  4.8km/h 31% 0in /  0.0mm 128 W/m2
18:54 54.9 °F /  12.7 °C 25.5 °F /  -3.6 °C 30in /  1016.3hPa WNW 2mph /  3.2km/h 4mph /  6.4km/h 32% 0in /  0.0mm 113 W/m2
18:59 54.5 °F /  12.5 °C 24.4 °F /  -4.2 °C 30in /  1016.3hPa NNW 2mph /  3.2km/h 2mph /  3.2km/h 31% 0in /  0.0mm 100 W/m2
19:04 54.1 °F /  12.3 °C 24.1 °F /  -4.4 °C 30in /  1016.3hPa NNW 2mph /  3.2km/h 2mph /  3.2km/h 31% 0in /  0.0mm 86 W/m2
19:09 54 °F /  12.2 °C 24.8 °F /  -4 °C 30in /  1016.3hPa Calm   3mph /  4.8km/h 32% 0in /  0.0mm 76 W/m2
19:14 54.1 °F /  12.3 °C 25 °F /  -3.9 °C 30in /  1016.3hPa NE 5mph /  8km/h 5mph /  8km/h 32% 0in /  0.0mm 62 W/m2
19:19 54.1 °F /  12.3 °C 25 °F /  -3.9 °C 30in /  1015.9hPa Calm   1mph /  1.6km/h 32% 0in /  0.0mm 47 W/m2
19:24 54 °F /  12.2 °C 24.1 °F /  -4.4 °C 30in /  1015.9hPa Calm   1mph /  1.6km/h 31% 0in /  0.0mm 23 W/m2
19:29 53.2 °F /  11.8 °C 23.4 °F /  -4.8 °C 30in /  1015.9hPa ENE 2mph /  3.2km/h 2mph /  3.2km/h 31% 0in /  0.0mm 21 W/m2
19:34 52.9 °F /  11.6 °C 23 °F /  -5 °C 30in /  1015.9hPa Calm   1mph /  1.6km/h 31% 0in /  0.0mm 19 W/m2
19:39 52.3 °F /  11.3 °C 24.1 °F /  -4.4 °C 30in /  1015.9hPa Calm     33% 0in /  0.0mm 16 W/m2
19:44 51.6 °F /  10.9 °C 23.4 °F /  -4.8 °C 30in /  1015.9hPa Calm   2mph /  3.2km/h 33% 0in /  0.0mm 14 W/m2
19:49 51.3 °F /  10.7 °C 23.9 °F /  -4.5 °C 30in /  1015.9hPa Calm     34% 0in /  0.0mm 12 W/m2
19:54 50.7 °F /  10.4 °C 24.1 °F /  -4.4 °C 30in /  1015.9hPa North 0.9mph /  1.4km/h 2mph /  3.2km/h 35% 0in /  0.0mm 11 W/m2
19:59 50.4 °F /  10.2 °C 25.7 °F /  -3.5 °C 30in /  1015.9hPa Calm     38% 0in /  0.0mm 9 W/m2
20:04 49.6 °F /  9.8 °C 27 °F /  -2.8 °C 30in /  1015.9hPa Calm   1mph /  1.6km/h 41% 0in /  0.0mm 7 W/m2
20:09 48.7 °F /  9.3 °C 26.6 °F /  -3 °C 30in /  1015.9hPa WNW 0.9mph /  1.4km/h 2mph /  3.2km/h 42% 0in /  0.0mm 5 W/m2
20:14 48 °F /  8.9 °C 27.1 °F /  -2.7 °C 30in /  1015.6hPa Calm   2mph /  3.2km/h 44% 0in /  0.0mm 0 W/m2
20:19 47.1 °F /  8.4 °C 26.2 °F /  -3.2 °C 30in /  1015.6hPa WNW 0.9mph /  1.4km/h 1mph /  1.6km/h 44% 0in /  0.0mm 0 W/m2
20:24 46.4 °F /  8 °C 26.8 °F /  -2.9 °C 30in /  1015.9hPa WNW 0.9mph /  1.4km/h 1mph /  1.6km/h 46% 0in /  0.0mm 0 W/m2
20:29 45.7 °F /  7.6 °C 26.6 °F /  -3 °C 30in /  1015.9hPa Calm     47% 0in /  0.0mm 0 W/m2
20:34 45.1 °F /  7.3 °C 26.6 °F /  -3 °C 30in /  1015.9hPa Calm     48% 0in /  0.0mm 0 W/m2
20:39 44.6 °F /  7 °C 26.6 °F /  -3 °C 30in /  1015.9hPa Calm     49% 0in /  0.0mm 0 W/m2
20:44 44.1 °F /  6.7 °C 26.6 °F /  -3 °C 30in /  1015.9hPa Calm   1mph /  1.6km/h 50% 0in /  0.0mm 0 W/m2
20:49 43.5 °F /  6.4 °C 26.6 °F /  -3 °C 30in /  1015.9hPa Calm   1mph /  1.6km/h 51% 0in /  0.0mm 0 W/m2
20:54 43 °F /  6.1 °C 26.6 °F /  -3 °C 30in /  1015.9hPa Calm   1mph /  1.6km/h 52% 0in /  0.0mm 0 W/m2
20:59 42.6 °F /  5.9 °C 26.6 °F /  -3 °C 30in /  1015.9hPa Calm     53% 0in /  0.0mm 0 W/m2
21:04 42.4 °F /  5.8 °C 27 °F /  -2.8 °C 30in /  1015.9hPa Calm     54% 0in /  0.0mm 0 W/m2
21:09 42.1 °F /  5.6 °C 27.1 °F /  -2.7 °C 30in /  1015.9hPa Calm     55% 0in /  0.0mm 0 W/m2
21:14 41.7 °F /  5.4 °C 27.1 °F /  -2.7 °C 30in /  1015.9hPa Calm     56% 0in /  0.0mm 0 W/m2
21:19 41.5 °F /  5.3 °C 27 °F /  -2.8 °C 30in /  1015.9hPa Calm     56% 0in /  0.0mm 0 W/m2
21:24 41.2 °F /  5.1 °C 27.1 °F /  -2.7 °C 30in /  1015.9hPa Calm     57% 0in /  0.0mm 0 W/m2
21:29 41 °F /  5 °C 27 °F /  -2.8 °C 30in /  1015.9hPa Calm     57% 0in /  0.0mm 0 W/m2
21:34 40.6 °F /  4.8 °C 27 °F /  -2.8 °C 30in /  1015.9hPa Calm     58% 0in /  0.0mm 0 W/m2
21:39 40.5 °F /  4.7 °C 27.3 °F /  -2.6 °C 30in /  1015.9hPa Calm     59% 0in /  0.0mm 0 W/m2
21:44 40.3 °F /  4.6 °C 26.6 °F /  -3 °C 30in /  1015.9hPa Calm     58% 0in /  0.0mm 0 W/m2
21:49 39.9 °F /  4.4 °C 26.4 °F /  -3.1 °C 30in /  1015.9hPa Calm     58% 0in /  0.0mm 0 W/m2
21:55 39.7 °F /  4.3 °C 27 °F /  -2.8 °C 30in /  1015.9hPa Calm     60% 0in /  0.0mm 0 W/m2
22:00 39.7 °F /  4.3 °C 27 °F /  -2.8 °C 30in /  1015.9hPa Calm     60% 0in /  0.0mm 0 W/m2
22:05 39.6 °F /  4.2 °C 26.8 °F /  -2.9 °C 30in /  1015.9hPa Calm     60% 0in /  0.0mm 0 W/m2
22:10 39.2 °F /  4 °C 26.4 °F /  -3.1 °C 30in /  1015.9hPa Calm     60% 0in /  0.0mm 0 W/m2
22:15 39 °F /  3.9 °C 26.2 °F /  -3.2 °C 30in /  1015.6hPa Calm     60% 0in /  0.0mm 0 W/m2
22:20 39 °F /  3.9 °C 25.9 °F /  -3.4 °C 30in /  1015.6hPa Calm     59% 0in /  0.0mm 0 W/m2
22:25 39 °F /  3.9 °C 25.9 °F /  -3.4 °C 30in /  1015.6hPa Calm     59% 0in /  0.0mm 0 W/m2
22:30 38.8 °F /  3.8 °C 25.7 °F /  -3.5 °C 30in /  1015.6hPa Calm     59% 0in /  0.0mm 0 W/m2
22:35 38.7 °F /  3.7 °C 26.1 °F /  -3.3 °C 30in /  1015.6hPa Calm     60% 0in /  0.0mm 0 W/m2
22:40 38.5 °F /  3.6 °C 26.2 °F /  -3.2 °C 30in /  1015.6hPa Calm     61% 0in /  0.0mm 0 W/m2
22:45 38.3 °F /  3.5 °C 26.1 °F /  -3.3 °C 30in /  1015.6hPa Calm     61% 0in /  0.0mm 0 W/m2
22:50 37.9 °F /  3.3 °C 26.1 °F /  -3.3 °C 30in /  1015.6hPa Calm     62% 0in /  0.0mm 0 W/m2
22:55 37.9 °F /  3.3 °C 26.1 °F /  -3.3 °C 30in /  1015.6hPa Calm     62% 0in /  0.0mm 0 W/m2
23:00 37.9 °F /  3.3 °C 25.7 °F /  -3.5 °C 30in /  1015.6hPa Calm     61% 0in /  0.0mm 0 W/m2
23:05 37.8 °F /  3.2 °C 25.9 °F /  -3.4 °C 30in /  1015.6hPa Calm     62% 0in /  0.0mm 0 W/m2
23:10 37.6 °F /  3.1 °C 25.7 °F /  -3.5 °C 30in /  1015.6hPa Calm     62% 0in /  0.0mm 0 W/m2
23:15 37.6 °F /  3.1 °C 25.7 °F /  -3.5 °C 30in /  1015.6hPa Calm     62% 0in /  0.0mm 0 W/m2
23:20 37.4 °F /  3 °C 25.9 °F /  -3.4 °C 30in /  1015.6hPa Calm     63% 0in /  0.0mm 0 W/m2
23:25 37.2 °F /  2.9 °C 25.7 °F /  -3.5 °C 30in /  1015.6hPa Calm     63% 0in /  0.0mm 0 W/m2
23:30 37.2 °F /  2.9 °C 25.7 °F /  -3.5 °C 30in /  1015.6hPa Calm     63% 0in /  0.0mm 0 W/m2
23:35 37 °F /  2.8 °C 25.7 °F /  -3.5 °C 30in /  1015.6hPa Calm     63% 0in /  0.0mm 0 W/m2
23:40 37 °F /  2.8 °C 25.7 °F /  -3.5 °C 30in /  1015.6hPa Calm     63% 0in /  0.0mm 0 W/m2
23:45 36.9 °F /  2.7 °C 25.5 °F /  -3.6 °C 30in /  1015.6hPa Calm   1mph /  1.6km/h 63% 0in /  0.0mm 0 W/m2
23:50 36.7 °F /  2.6 °C 25.3 °F /  -3.7 °C 30in /  1015.6hPa WNW 0.9mph /  1.4km/h 2mph /  3.2km/h 63% 0in /  0.0mm 0 W/m2
23:55 36.7 °F /  2.6 °C 25.7 °F /  -3.5 °C 30in /  1015.6hPa Calm   2mph /  3.2km/h 64% 0in /  0.0mm 0 W/m2
Juneau County Weather
Compliments of Weather Underground - 2 mb